Loretto, Michigan
Current Conditions -  °F | °C
As of 4:19 PM on Monday 20 Oct 2014 (Local Time) from KIMT Reporting Station
Light Rain Light Rain  
Wind Chill: 41°   Ceiling: 2100
Heat Index: 47°   Visibility: 9mi
Dew Point: 41°   Wind: 13mph
Humidity: 80%   Direction: 350°N
Pressure: 29.92"   Gusts: NA
Location:  45.78°N, 87.81°W
Report Text: KIMT 202119Z AUTO 35011KT 9SM -RA SCT017 BKN021 OVC050 08/05 A2992 RMK AO2 RAB18 P0000 T00830050
Loading
Personal Weather Stations






























Interactive Weather Map
Tropical Storm Tracking
New forecast layout! Learn more

10-Day Weather Forecast

Advertisements
Track Severe Weather on mobile